N613PM KPNS-KJAX
Flight info
| Callsign | N613PM |
|---|---|
| Flight time | 0h 46m |
| Altitude | 39000 |
| Route | SZW CAPPS ZOOSS MARQO3 |
| Aircraft | C750/M-SBDE3FGHRWXY/S |
Departure
| Time | 2026-04-26 00:19 |
|---|---|
| Airport | Pensacola International Airport (KPNS) |
Arrival
| Time | 2026-04-26 01:05 |
|---|---|
| Airport | Jacksonville International Airport (KJAX) |
| Time | Latitude | Longitude | Altitude | Speed | Heading |
|---|---|---|---|---|---|
| 2026-04-25 23:58 | 30.46966 | -87.18240 | 101 ft | 0 kts | 77° |
| 2026-04-26 00:05 | 30.46968 | -87.18238 | 101 ft | 0 kts | 3° |
| 2026-04-26 00:05 | 30.46970 | -87.18240 | 101 ft | 0 kts | 269° |
| 2026-04-26 00:12 | 30.46969 | -87.18243 | 101 ft | 3 kts | 267° |
| 2026-04-26 00:12 | 30.46967 | -87.18359 | 100 ft | 11 kts | 262° |
| 2026-04-26 00:13 | 30.47000 | -87.18417 | 99 ft | 10 kts | 342° |
| 2026-04-26 00:13 | 30.47118 | -87.18449 | 98 ft | 24 kts | 348° |
| 2026-04-26 00:13 | 30.47259 | -87.18484 | 99 ft | 12 kts | 347° |
| 2026-04-26 00:13 | 30.47373 | -87.18516 | 101 ft | 20 kts | 346° |
| 2026-04-26 00:14 | 30.47449 | -87.18572 | 102 ft | 12 kts | 281° |
| 2026-04-26 00:14 | 30.47441 | -87.18674 | 101 ft | 14 kts | 259° |
| 2026-04-26 00:14 | 30.47410 | -87.18829 | 99 ft | 23 kts | 258° |
| 2026-04-26 00:14 | 30.47420 | -87.18990 | 100 ft | 19 kts | 334° |
| 2026-04-26 00:15 | 30.47549 | -87.19031 | 104 ft | 20 kts | 347° |
| 2026-04-26 00:15 | 30.47714 | -87.19073 | 107 ft | 27 kts | 348° |
| 2026-04-26 00:15 | 30.47921 | -87.19126 | 111 ft | 30 kts | 346° |
| 2026-04-26 00:15 | 30.48101 | -87.19175 | 113 ft | 24 kts | 347° |
| 2026-04-26 00:16 | 30.48232 | -87.19208 | 112 ft | 12 kts | 1° |
| 2026-04-26 00:16 | 30.48263 | -87.19162 | 113 ft | 0 kts | 77° |
| 2026-04-26 00:18 | 30.48264 | -87.19153 | 113 ft | 10 kts | 77° |
| 2026-04-26 00:18 | 30.48241 | -87.19053 | 115 ft | 16 kts | 164° |
| 2026-04-26 00:18 | 30.47873 | -87.18953 | 111 ft | 98 kts | 168° |
| 2026-04-26 00:18 | 30.46937 | -87.18707 | 111 ft | 169 kts | 167° |
| 2026-04-26 00:19 | 30.45689 | -87.18361 | 574 ft | 201 kts | 165° |
| 2026-04-26 00:19 | 30.44239 | -87.17860 | 1258 ft | 234 kts | 164° |
| 2026-04-26 00:19 | 30.42751 | -87.17283 | 2661 ft | 231 kts | 163° |
| 2026-04-26 00:19 | 30.41083 | -87.16591 | 2832 ft | 282 kts | 163° |
| 2026-04-26 00:20 | 30.39162 | -87.15883 | 3111 ft | 302 kts | 164° |
| 2026-04-26 00:20 | 30.37053 | -87.15126 | 3043 ft | 315 kts | 165° |
| 2026-04-26 00:20 | 30.34964 | -87.14374 | 3120 ft | 304 kts | 165° |
| 2026-04-26 00:20 | 30.32981 | -87.13650 | 3410 ft | 283 kts | 165° |
| 2026-04-26 00:21 | 30.31116 | -87.12965 | 3462 ft | 273 kts | 165° |
| 2026-04-26 00:21 | 30.29308 | -87.12295 | 4307 ft | 273 kts | 164° |
| 2026-04-26 00:21 | 30.27690 | -87.11313 | 5735 ft | 270 kts | 135° |
| 2026-04-26 00:21 | 30.26777 | -87.09428 | 7000 ft | 268 kts | 101° |
| 2026-04-26 00:22 | 30.26676 | -87.07304 | 8096 ft | 267 kts | 83° |
| 2026-04-26 00:22 | 30.26856 | -87.05132 | 9126 ft | 274 kts | 79° |
| 2026-04-26 00:22 | 30.27103 | -87.02881 | 10158 ft | 280 kts | 78° |
| 2026-04-26 00:22 | 30.27364 | -87.00661 | 11121 ft | 285 kts | 78° |
| 2026-04-26 00:23 | 30.27632 | -86.98374 | 12073 ft | 289 kts | 78° |
| 2026-04-26 00:23 | 30.27904 | -86.96057 | 12983 ft | 294 kts | 78° |
| 2026-04-26 00:23 | 30.28180 | -86.93703 | 13865 ft | 298 kts | 78° |
| 2026-04-26 00:23 | 30.28463 | -86.91289 | 14789 ft | 301 kts | 78° |
| 2026-04-26 00:24 | 30.28746 | -86.88875 | 15618 ft | 302 kts | 78° |
| 2026-04-26 00:24 | 30.29029 | -86.86464 | 16365 ft | 304 kts | 78° |
| 2026-04-26 00:24 | 30.29309 | -86.84048 | 17081 ft | 307 kts | 79° |
| 2026-04-26 00:24 | 30.29591 | -86.81618 | 17760 ft | 310 kts | 79° |
| 2026-04-26 00:25 | 30.29880 | -86.79134 | 18445 ft | 313 kts | 79° |
| 2026-04-26 00:25 | 30.30171 | -86.76630 | 19071 ft | 317 kts | 79° |
| 2026-04-26 00:25 | 30.30460 | -86.74108 | 19695 ft | 321 kts | 79° |
| 2026-04-26 00:25 | 30.30757 | -86.71537 | 20316 ft | 325 kts | 79° |
| 2026-04-26 00:26 | 30.31058 | -86.68931 | 20933 ft | 328 kts | 79° |
| 2026-04-26 00:26 | 30.31362 | -86.66299 | 21541 ft | 331 kts | 79° |
| 2026-04-26 00:26 | 30.31667 | -86.63642 | 22117 ft | 335 kts | 79° |
| 2026-04-26 00:26 | 30.31976 | -86.60958 | 22707 ft | 338 kts | 79° |
| 2026-04-26 00:27 | 30.32285 | -86.58256 | 23271 ft | 341 kts | 79° |
| 2026-04-26 00:27 | 30.32596 | -86.55517 | 23803 ft | 345 kts | 79° |
| 2026-04-26 00:27 | 30.32917 | -86.52710 | 24373 ft | 348 kts | 79° |
| 2026-04-26 00:27 | 30.33249 | -86.49799 | 24909 ft | 352 kts | 79° |
| 2026-04-26 00:28 | 30.33582 | -86.46870 | 25467 ft | 356 kts | 79° |
| 2026-04-26 00:28 | 30.33901 | -86.44040 | 26391 ft | 347 kts | 79° |
| 2026-04-26 00:28 | 30.34203 | -86.41336 | 27405 ft | 335 kts | 78° |
| 2026-04-26 00:28 | 30.34510 | -86.38628 | 27976 ft | 337 kts | 78° |
| 2026-04-26 00:29 | 30.34818 | -86.35938 | 28456 ft | 341 kts | 78° |
| 2026-04-26 00:29 | 30.35125 | -86.33210 | 28930 ft | 344 kts | 79° |
| 2026-04-26 00:29 | 30.35744 | -86.27671 | 29839 ft | 351 kts | 79° |
| 2026-04-26 00:30 | 30.36055 | -86.24894 | 30288 ft | 354 kts | 79° |
| 2026-04-26 00:30 | 30.36370 | -86.22056 | 30712 ft | 358 kts | 78° |
| 2026-04-26 00:30 | 30.36686 | -86.19220 | 31166 ft | 360 kts | 78° |
| 2026-04-26 00:30 | 30.37006 | -86.16338 | 31600 ft | 363 kts | 78° |
| 2026-04-26 00:31 | 30.37327 | -86.13436 | 32025 ft | 365 kts | 78° |
| 2026-04-26 00:31 | 30.37652 | -86.10507 | 32442 ft | 368 kts | 78° |
| 2026-04-26 00:31 | 30.37977 | -86.07580 | 32834 ft | 371 kts | 77° |
| 2026-04-26 00:31 | 30.38300 | -86.04630 | 33254 ft | 372 kts | 77° |
| 2026-04-26 00:32 | 30.38624 | -86.01676 | 33645 ft | 375 kts | 77° |
| 2026-04-26 00:32 | 30.38959 | -85.98669 | 34004 ft | 378 kts | 77° |
| 2026-04-26 00:32 | 30.39626 | -85.92587 | 34759 ft | 383 kts | 77° |
| 2026-04-26 00:33 | 30.39964 | -85.89518 | 35130 ft | 386 kts | 78° |
| 2026-04-26 00:33 | 30.40295 | -85.86470 | 35479 ft | 388 kts | 78° |
| 2026-04-26 00:33 | 30.40636 | -85.83348 | 35840 ft | 391 kts | 78° |
| 2026-04-26 00:33 | 30.40974 | -85.80224 | 36169 ft | 394 kts | 78° |
| 2026-04-26 00:34 | 30.41308 | -85.77100 | 36487 ft | 397 kts | 79° |
| 2026-04-26 00:34 | 30.41652 | -85.73907 | 36846 ft | 399 kts | 79° |
| 2026-04-26 00:34 | 30.41996 | -85.70727 | 37151 ft | 402 kts | 79° |
| 2026-04-26 00:34 | 30.42341 | -85.67503 | 37473 ft | 404 kts | 79° |
| 2026-04-26 00:35 | 30.42685 | -85.64291 | 37762 ft | 407 kts | 79° |
| 2026-04-26 00:35 | 30.43036 | -85.61006 | 38092 ft | 409 kts | 79° |
| 2026-04-26 00:35 | 30.43383 | -85.57748 | 38408 ft | 411 kts | 79° |
| 2026-04-26 00:35 | 30.43731 | -85.54477 | 38635 ft | 415 kts | 79° |
| 2026-04-26 00:36 | 30.44080 | -85.51158 | 38911 ft | 418 kts | 79° |
| 2026-04-26 00:36 | 30.44440 | -85.47804 | 38883 ft | 428 kts | 79° |
| 2026-04-26 00:36 | 30.45172 | -85.40846 | 38924 ft | 446 kts | 79° |
| 2026-04-26 00:37 | 30.45931 | -85.33599 | 38915 ft | 464 kts | 81° |
| 2026-04-26 00:37 | 30.46720 | -85.26028 | 38907 ft | 482 kts | 81° |
| 2026-04-26 00:38 | 30.47532 | -85.18182 | 38895 ft | 500 kts | 81° |
| 2026-04-26 00:38 | 30.48363 | -85.10117 | 38894 ft | 516 kts | 81° |
| 2026-04-26 00:39 | 30.49218 | -85.01764 | 38895 ft | 532 kts | 81° |
| 2026-04-26 00:39 | 30.50095 | -84.93147 | 38894 ft | 547 kts | 81° |
| 2026-04-26 00:40 | 30.50987 | -84.84319 | 38902 ft | 557 kts | 81° |
| 2026-04-26 00:40 | 30.51883 | -84.75409 | 38895 ft | 557 kts | 82° |
| 2026-04-26 00:41 | 30.52762 | -84.66547 | 38911 ft | 556 kts | 82° |
| 2026-04-26 00:41 | 30.53642 | -84.57643 | 38914 ft | 557 kts | 82° |
| 2026-04-26 00:42 | 30.54522 | -84.48719 | 38893 ft | 558 kts | 82° |
| 2026-04-26 00:42 | 30.55391 | -84.39831 | 38901 ft | 559 kts | 82° |
| 2026-04-26 00:43 | 30.55489 | -84.30865 | 38901 ft | 560 kts | 92° |
| 2026-04-26 00:43 | 30.55283 | -84.21859 | 38878 ft | 560 kts | 91° |
| 2026-04-26 00:44 | 30.55074 | -84.12883 | 38906 ft | 560 kts | 92° |
| 2026-04-26 00:44 | 30.54864 | -84.03837 | 38533 ft | 564 kts | 92° |
| 2026-04-26 00:45 | 30.54750 | -83.99352 | 38258 ft | 560 kts | 92° |
| 2026-04-26 00:45 | 30.54641 | -83.94857 | 37869 ft | 560 kts | 92° |
| 2026-04-26 00:45 | 30.54528 | -83.90304 | 37219 ft | 562 kts | 92° |
| 2026-04-26 00:45 | 30.54419 | -83.85807 | 36588 ft | 561 kts | 92° |
| 2026-04-26 00:46 | 30.54302 | -83.81325 | 35939 ft | 557 kts | 92° |
| 2026-04-26 00:46 | 30.54190 | -83.76878 | 35317 ft | 555 kts | 92° |
| 2026-04-26 00:46 | 30.54073 | -83.72429 | 34698 ft | 554 kts | 92° |
| 2026-04-26 00:46 | 30.53958 | -83.67980 | 34085 ft | 553 kts | 92° |
| 2026-04-26 00:47 | 30.53839 | -83.63535 | 33487 ft | 552 kts | 92° |
| 2026-04-26 00:47 | 30.53721 | -83.59138 | 32914 ft | 551 kts | 92° |
| 2026-04-26 00:47 | 30.53600 | -83.54685 | 32335 ft | 550 kts | 92° |
| 2026-04-26 00:47 | 30.53478 | -83.50298 | 31772 ft | 548 kts | 92° |
| 2026-04-26 00:48 | 30.53349 | -83.45896 | 31191 ft | 547 kts | 92° |
| 2026-04-26 00:48 | 30.53222 | -83.41519 | 30620 ft | 545 kts | 92° |
| 2026-04-26 00:48 | 30.53090 | -83.37163 | 30026 ft | 543 kts | 92° |
| 2026-04-26 00:48 | 30.52960 | -83.32783 | 29216 ft | 539 kts | 92° |
| 2026-04-26 00:49 | 30.52827 | -83.28513 | 28452 ft | 533 kts | 92° |
| 2026-04-26 00:49 | 30.52696 | -83.24262 | 27571 ft | 527 kts | 92° |
| 2026-04-26 00:49 | 30.52567 | -83.20225 | 26707 ft | 520 kts | 92° |
| 2026-04-26 00:49 | 30.52444 | -83.16181 | 25838 ft | 513 kts | 92° |
| 2026-04-26 00:50 | 30.52314 | -83.12099 | 24947 ft | 506 kts | 92° |
| 2026-04-26 00:50 | 30.52186 | -83.08041 | 24049 ft | 500 kts | 91° |
| 2026-04-26 00:50 | 30.52063 | -83.04137 | 23181 ft | 494 kts | 91° |
| 2026-04-26 00:50 | 30.51933 | -83.00137 | 22339 ft | 494 kts | 91° |
| 2026-04-26 00:51 | 30.51810 | -82.96221 | 21479 ft | 492 kts | 91° |
| 2026-04-26 00:51 | 30.51689 | -82.92303 | 20644 ft | 487 kts | 91° |
| 2026-04-26 00:51 | 30.51554 | -82.88406 | 19786 ft | 482 kts | 91° |
| 2026-04-26 00:51 | 30.51428 | -82.84610 | 18946 ft | 477 kts | 91° |
| 2026-04-26 00:52 | 30.51301 | -82.80797 | 18097 ft | 472 kts | 91° |
| 2026-04-26 00:52 | 30.51173 | -82.77010 | 17264 ft | 467 kts | 91° |
| 2026-04-26 00:52 | 30.51051 | -82.73334 | 16438 ft | 461 kts | 91° |
| 2026-04-26 00:52 | 30.50924 | -82.69663 | 15585 ft | 455 kts | 91° |
| 2026-04-26 00:53 | 30.50940 | -82.66016 | 14738 ft | 450 kts | 84° |
| 2026-04-26 00:53 | 30.51153 | -82.62439 | 13912 ft | 445 kts | 86° |
| 2026-04-26 00:53 | 30.51303 | -82.58878 | 13068 ft | 441 kts | 86° |
| 2026-04-26 00:53 | 30.51459 | -82.55369 | 12233 ft | 436 kts | 86° |
| 2026-04-26 00:54 | 30.51604 | -82.51929 | 11392 ft | 425 kts | 86° |
| 2026-04-26 00:54 | 30.51743 | -82.48599 | 10947 ft | 405 kts | 86° |
| 2026-04-26 00:54 | 30.51866 | -82.45448 | 10877 ft | 379 kts | 87° |
| 2026-04-26 00:54 | 30.51996 | -82.42461 | 10857 ft | 355 kts | 86° |
| 2026-04-26 00:55 | 30.52111 | -82.39707 | 10862 ft | 335 kts | 86° |
| 2026-04-26 00:55 | 30.51944 | -82.37112 | 10847 ft | 317 kts | 104° |
| 2026-04-26 00:55 | 30.51377 | -82.34655 | 10404 ft | 318 kts | 105° |
| 2026-04-26 00:55 | 30.50799 | -82.32166 | 9946 ft | 320 kts | 106° |
| 2026-04-26 00:56 | 30.50223 | -82.29706 | 9501 ft | 321 kts | 105° |
| 2026-04-26 00:56 | 30.49637 | -82.27210 | 9049 ft | 322 kts | 105° |
| 2026-04-26 00:56 | 30.49055 | -82.24702 | 8577 ft | 314 kts | 105° |
| 2026-04-26 00:56 | 30.48502 | -82.22302 | 8096 ft | 307 kts | 105° |
| 2026-04-26 00:57 | 30.47972 | -82.19932 | 7611 ft | 300 kts | 105° |
| 2026-04-26 00:57 | 30.47471 | -82.17641 | 7147 ft | 294 kts | 105° |
| 2026-04-26 00:57 | 30.46990 | -82.15384 | 6678 ft | 291 kts | 106° |
| 2026-04-26 00:57 | 30.46519 | -82.13152 | 6231 ft | 294 kts | 105° |
| 2026-04-26 00:58 | 30.46047 | -82.10902 | 5786 ft | 296 kts | 105° |
| 2026-04-26 00:58 | 30.45562 | -82.08631 | 5330 ft | 298 kts | 105° |
| 2026-04-26 00:58 | 30.45075 | -82.06374 | 4868 ft | 299 kts | 105° |
| 2026-04-26 00:58 | 30.44562 | -82.04078 | 4384 ft | 301 kts | 106° |
| 2026-04-26 00:59 | 30.44025 | -82.01771 | 3928 ft | 294 kts | 106° |
| 2026-04-26 00:59 | 30.43505 | -81.99564 | 3425 ft | 268 kts | 106° |
| 2026-04-26 00:59 | 30.43036 | -81.97601 | 2942 ft | 241 kts | 106° |
| 2026-04-26 00:59 | 30.42628 | -81.95882 | 2851 ft | 205 kts | 105° |
| 2026-04-26 01:00 | 30.42421 | -81.94388 | 2820 ft | 174 kts | 93° |
| 2026-04-26 01:00 | 30.42502 | -81.93044 | 2537 ft | 167 kts | 79° |
| 2026-04-26 01:00 | 30.42829 | -81.91710 | 2137 ft | 178 kts | 71° |
| 2026-04-26 01:00 | 30.43251 | -81.90377 | 1965 ft | 172 kts | 70° |
| 2026-04-26 01:01 | 30.43702 | -81.89098 | 1779 ft | 173 kts | 68° |
| 2026-04-26 01:01 | 30.44171 | -81.87820 | 1735 ft | 173 kts | 68° |
| 2026-04-26 01:01 | 30.44657 | -81.86538 | 1701 ft | 176 kts | 70° |
| 2026-04-26 01:01 | 30.45062 | -81.85197 | 1750 ft | 175 kts | 74° |
| 2026-04-26 01:02 | 30.45432 | -81.83833 | 1723 ft | 178 kts | 75° |
| 2026-04-26 01:02 | 30.45808 | -81.82473 | 1726 ft | 178 kts | 70° |
| 2026-04-26 01:02 | 30.46226 | -81.81119 | 1690 ft | 179 kts | 68° |
| 2026-04-26 01:02 | 30.46688 | -81.79762 | 1610 ft | 181 kts | 66° |
| 2026-04-26 01:03 | 30.47097 | -81.78373 | 1472 ft | 185 kts | 71° |
| 2026-04-26 01:03 | 30.47510 | -81.76932 | 1235 ft | 191 kts | 66° |
| 2026-04-26 01:03 | 30.47960 | -81.75508 | 1057 ft | 184 kts | 68° |
| 2026-04-26 01:03 | 30.48388 | -81.74120 | 754 ft | 179 kts | 68° |
| 2026-04-26 01:04 | 30.48775 | -81.72796 | 507 ft | 173 kts | 69° |
| 2026-04-26 01:04 | 30.49160 | -81.71504 | 288 ft | 163 kts | 66° |
| 2026-04-26 01:04 | 30.49528 | -81.70322 | 88 ft | 153 kts | 78° |
| 2026-04-26 01:04 | 30.49882 | -81.69243 | 37 ft | 135 kts | 79° |
| 2026-04-26 01:05 | 30.50142 | -81.68310 | 22 ft | 108 kts | 73° |
| 2026-04-26 01:05 | 30.50320 | -81.67714 | 23 ft | 35 kts | 70° |
| 2026-04-26 01:05 | 30.50290 | -81.67595 | 24 ft | 15 kts | 153° |
| 2026-04-26 01:05 | 30.50266 | -81.67582 | 24 ft | 0 kts | 159° |
| 2026-04-26 01:06 | 30.50265 | -81.67582 | 24 ft | 0 kts | 158° |
| 2026-04-26 01:06 | 30.50243 | -81.67572 | 24 ft | 11 kts | 158° |
| 2026-04-26 01:06 | 30.50182 | -81.67600 | 25 ft | 10 kts | 245° |
| 2026-04-26 01:06 | 30.50142 | -81.67726 | 24 ft | 23 kts | 249° |
| 2026-04-26 01:07 | 30.50098 | -81.67871 | 22 ft | 14 kts | 251° |
| 2026-04-26 01:07 | 30.50068 | -81.67956 | 22 ft | 10 kts | 226° |
| 2026-04-26 01:07 | 30.50000 | -81.67963 | 22 ft | 10 kts | 160° |
| 2026-04-26 01:07 | 30.49928 | -81.67932 | 22 ft | 11 kts | 159° |
| 2026-04-26 01:08 | 30.49863 | -81.67941 | 22 ft | 10 kts | 246° |
| 2026-04-26 01:08 | 30.49851 | -81.68030 | 22 ft | 11 kts | 223° |
| 2026-04-26 01:08 | 30.49782 | -81.68064 | 22 ft | 10 kts | 200° |